Time;durP1;ratioP1;P1;durP2;ratioP2;P2;SDS_P1;SDS_P2;PMS_P1;PMS_P2;Temp;Humidity;BMP_temperature;BMP_pressure;BME280_temperature;BME280_humidity;BME280_pressure;Samples;Min_cycle;Max_cycle;Signal;HPM_P1;HPM_P2
2021/09/03 00:00:58;;;;;;;2.50;1.08;;;;;;;16.23;100.00;100965.25;5034042;28;20324;-50
2021/09/03 00:04:02;;;;;;;6.72;2.10;;;;;;;16.21;100.00;100953.75;5035116;28;20285;-49
2021/09/03 00:07:05;;;;;;;5.10;2.20;;;;;;;16.19;100.00;100952.66;5034015;28;20055;-49
2021/09/03 00:10:10;;;;;;;9.32;2.00;;;;;;;16.06;100.00;100958.59;5033691;28;20236;-49
2021/09/03 00:13:14;;;;;;;6.38;1.80;;;;;;;16.05;100.00;100951.44;5034680;28;20892;-49
2021/09/03 00:16:18;;;;;;;4.10;1.48;;;;;;;16.09;100.00;100951.25;5033987;28;20039;-49
2021/09/03 00:19:21;;;;;;;3.30;1.83;;;;;;;16.08;100.00;100949.69;5034677;28;20093;-50
2021/09/03 00:22:25;;;;;;;2.08;1.42;;;;;;;16.17;100.00;100941.16;5035540;28;20035;-49
2021/09/03 00:25:28;;;;;;;2.95;1.20;;;;;;;16.24;100.00;100947.13;5035745;28;20093;-49
2021/09/03 00:28:31;;;;;;;4.40;1.75;;;;;;;16.17;100.00;100941.94;5036256;28;20411;-50
2021/09/03 00:31:34;;;;;;;5.28;2.00;;;;;;;16.18;100.00;100926.59;5037964;28;20043;-49
2021/09/03 00:34:38;;;;;;;4.80;1.58;;;;;;;16.07;100.00;100934.84;5037719;28;20764;-50
2021/09/03 00:37:41;;;;;;;10.73;1.70;;;;;;;16.08;100.00;100933.59;5037331;28;20047;-49
2021/09/03 00:40:44;;;;;;;2.17;1.10;;;;;;;16.11;100.00;100927.03;5041782;28;20038;-49
2021/09/03 00:43:48;;;;;;;4.72;1.70;;;;;;;16.12;100.00;100939.00;5047883;28;20089;-49
2021/09/03 00:46:51;;;;;;;4.35;1.92;;;;;;;16.18;100.00;100932.22;5058121;28;20038;-49
2021/09/03 00:49:54;;;;;;;4.97;1.77;;;;;;;16.16;100.00;100929.13;5057380;28;20101;-49
2021/09/03 00:52:57;;;;;;;11.73;1.63;;;;;;;16.10;100.00;100925.47;5056560;28;20105;-49
2021/09/03 00:56:01;;;;;;;4.70;1.75;;;;;;;16.07;100.00;100912.38;5057700;28;20093;-49
2021/09/03 00:59:04;;;;;;;7.68;2.42;;;;;;;16.06;100.00;100924.88;5057403;28;20527;-49
2021/09/03 01:02:07;;;;;;;4.72;1.17;;;;;;;16.02;100.00;100918.69;5056390;28;20879;-50
2021/09/03 01:05:10;;;;;;;5.10;2.53;;;;;;;15.95;100.00;100919.09;5058871;28;20375;-49
2021/09/03 01:08:13;;;;;;;9.40;1.45;;;;;;;16.00;100.00;100914.81;5067567;28;20101;-49
2021/09/03 01:11:16;;;;;;;8.35;1.88;;;;;;;16.02;100.00;100909.50;5093166;28;20055;-50
2021/09/03 01:14:19;;;;;;;2.95;1.23;;;;;;;16.04;100.00;100913.38;5092975;28;20097;-50
2021/09/03 01:17:22;;;;;;;6.10;1.65;;;;;;;16.04;100.00;100915.38;5092588;28;20051;-50
2021/09/03 01:20:25;;;;;;;8.63;2.38;;;;;;;16.04;100.00;100915.38;5093041;28;20041;-49
2021/09/03 01:23:28;;;;;;;13.52;2.30;;;;;;;16.01;100.00;100903.09;5096793;28;20074;-50
2021/09/03 01:26:31;;;;;;;5.15;1.63;;;;;;;16.06;100.00;100899.59;5097173;28;20039;-50
2021/09/03 01:29:33;;;;;;;3.90;1.38;;;;;;;16.07;100.00;100894.75;5096507;28;20043;-49
2021/09/03 01:32:37;;;;;;;4.78;2.13;;;;;;;16.06;100.00;100885.53;5096638;28;20126;-50
2021/09/03 01:35:41;;;;;;;4.05;1.35;;;;;;;16.07;100.00;100875.09;5095631;28;20106;-50
2021/09/03 01:38:43;;;;;;;5.60;1.90;;;;;;;16.11;100.00;100879.25;5096608;28;20104;-50
2021/09/03 01:41:47;;;;;;;2.50;1.15;;;;;;;16.11;100.00;100887.69;5096827;28;20131;-50
2021/09/03 01:44:49;;;;;;;3.65;1.88;;;;;;;16.07;100.00;100878.66;5096431;28;20112;-50
2021/09/03 01:47:52;;;;;;;4.85;1.25;;;;;;;16.05;100.00;100884.00;5096547;28;20416;-50
2021/09/03 01:51:02;;;;;;;8.13;1.75;;;;;;;16.09;100.00;100867.69;5096424;28;20038;-48
2021/09/03 01:54:05;;;;;;;4.25;1.58;;;;;;;16.08;100.00;100868.97;5096648;28;20047;-50
2021/09/03 01:57:09;;;;;;;2.05;1.05;;;;;;;16.12;100.00;100866.72;5096501;28;20046;-50
2021/09/03 02:00:13;;;;;;;5.38;2.05;;;;;;;16.11;100.00;100865.19;5096210;28;20055;-49
2021/09/03 02:03:16;;;;;;;5.03;1.42;;;;;;;16.08;100.00;100856.94;5096102;28;20446;-50
2021/09/03 02:06:20;;;;;;;3.25;1.52;;;;;;;16.06;100.00;100867.91;5095363;28;20050;-50
2021/09/03 02:09:23;;;;;;;4.15;1.48;;;;;;;16.11;100.00;100859.56;5095859;28;20097;-49
2021/09/03 02:12:26;;;;;;;10.52;2.33;;;;;;;16.15;100.00;100848.91;5095951;28;20128;-49
2021/09/03 02:15:29;;;;;;;12.23;1.85;;;;;;;16.15;100.00;100848.91;5095855;28;20073;-50
2021/09/03 02:18:32;;;;;;;3.13;1.63;;;;;;;16.04;100.00;100837.50;5095660;28;20118;-49
2021/09/03 02:21:37;;;;;;;5.53;2.55;;;;;;;15.77;100.00;100835.03;5095141;28;20042;-49
2021/09/03 02:24:40;;;;;;;6.10;1.52;;;;;;;15.78;100.00;100836.59;5095506;28;20047;-49
2021/09/03 02:27:43;;;;;;;6.50;1.60;;;;;;;15.76;100.00;100833.50;5095607;28;20055;-49
2021/09/03 02:30:46;;;;;;;3.05;1.40;;;;;;;15.76;100.00;100825.06;5095568;28;20553;-50
2021/09/03 02:33:49;;;;;;;3.65;1.17;;;;;;;15.87;100.00;100822.44;5094105;28;20182;-49
2021/09/03 02:36:52;;;;;;;2.35;1.52;;;;;;;16.02;100.00;100825.97;5095391;28;20131;-50
2021/09/03 02:39:55;;;;;;;8.10;2.60;;;;;;;16.02;100.00;100816.75;5095489;28;20039;-49
2021/09/03 02:42:58;;;;;;;7.10;2.10;;;;;;;16.16;100.00;100822.31;5095747;28;20062;-49
2021/09/03 02:46:01;;;;;;;2.47;1.08;;;;;;;16.24;100.00;100822.69;5095497;28;20047;-49
2021/09/03 02:49:04;;;;;;;3.22;1.30;;;;;;;16.19;100.00;100815.72;5094385;28;20056;-49
2021/09/03 02:52:07;;;;;;;5.40;2.30;;;;;;;16.13;100.00;100812.09;5095277;28;20482;-50
2021/09/03 02:55:10;;;;;;;2.30;0.95;;;;;;;16.05;100.00;100813.75;5095246;28;20097;-49
2021/09/03 02:58:13;;;;;;;4.28;1.77;;;;;;;16.11;100.00;100802.59;5094936;28;20058;-49
2021/09/03 03:01:16;;;;;;;3.97;2.70;;;;;;;16.05;100.00;100794.06;5094980;28;20549;-49
2021/09/03 03:04:19;;;;;;;4.78;1.42;;;;;;;16.00;100.00;100796.81;5094944;28;20043;-49
2021/09/03 03:07:21;;;;;;;5.35;2.22;;;;;;;16.02;100.00;100797.88;5094806;28;20564;-49
2021/09/03 03:10:26;;;;;;;4.47;1.25;;;;;;;15.96;100.00;100799.81;5094411;28;20097;-49
2021/09/03 03:13:30;;;;;;;13.38;2.15;;;;;;;16.01;100.00;100793.50;5094556;28;20507;-50
2021/09/03 03:16:33;;;;;;;5.57;2.10;;;;;;;15.97;100.00;100790.13;5094584;28;20109;-50
2021/09/03 03:19:36;;;;;;;7.68;1.40;;;;;;;15.94;100.00;100794.69;5094310;28;20039;-49
2021/09/03 03:22:39;;;;;;;3.65;1.63;;;;;;;15.93;100.00;100781.94;5094394;28;20442;-49
2021/09/03 03:25:42;;;;;;;3.50;1.75;;;;;;;16.01;100.00;100776.66;5094124;28;20136;-49
2021/09/03 03:28:45;;;;;;;1.60;1.13;;;;;;;16.03;100.00;100773.34;5093542;28;20043;-49
2021/09/03 03:31:48;;;;;;;5.28;2.10;;;;;;;16.06;100.00;100773.16;5094332;28;20047;-49
2021/09/03 03:34:51;;;;;;;9.50;1.88;;;;;;;16.07;100.00;100759.88;5094214;28;20185;-49
2021/09/03 03:37:54;;;;;;;6.47;1.63;;;;;;;16.12;100.00;100759.16;5093935;28;20457;-49
2021/09/03 03:40:57;;;;;;;6.70;1.75;;;;;;;16.13;100.00;100750.25;5094224;28;20042;-50
2021/09/03 03:44:00;;;;;;;7.03;1.40;;;;;;;16.24;100.00;100744.00;5093879;28;20109;-49
2021/09/03 03:47:04;;;;;;;2.00;1.20;;;;;;;16.23;100.00;100743.22;5094234;28;20054;-50
2021/09/03 03:50:08;;;;;;;8.27;1.00;;;;;;;15.89;100.00;100736.41;5093998;28;20553;-50
2021/09/03 03:53:11;;;;;;;2.75;1.23;;;;;;;15.86;100.00;100739.41;5094431;28;20042;-49
2021/09/03 03:56:14;;;;;;;4.18;1.40;;;;;;;15.84;100.00;100727.91;5094317;28;20108;-49
2021/09/03 03:59:18;;;;;;;2.97;1.60;;;;;;;16.01;100.00;100730.91;5093682;28;20412;-50
2021/09/03 04:02:22;;;;;;;7.28;1.48;;;;;;;16.10;100.00;100725.94;5093706;28;20043;-50
2021/09/03 04:05:25;;;;;;;5.07;1.25;;;;;;;16.15;100.00;100719.63;5093596;28;20097;-49
2021/09/03 04:08:28;;;;;;;2.55;1.55;;;;;;;15.97;100.00;100719.91;5093926;28;20123;-50
2021/09/03 04:11:30;;;;;;;4.32;1.42;;;;;;;15.87;100.00;100715.69;5093559;28;20055;-49
2021/09/03 04:14:33;;;;;;;3.65;2.22;;;;;;;15.82;100.00;100719.19;5093416;28;20077;-49
2021/09/03 04:17:37;;;;;;;3.55;1.65;;;;;;;15.83;100.00;100710.25;5093553;28;20043;-50
2021/09/03 04:20:40;;;;;;;3.65;2.05;;;;;;;15.88;100.00;100705.97;5092671;28;20565;-49
2021/09/03 04:23:43;;;;;;;5.20;1.65;;;;;;;15.86;100.00;100703.69;5093332;28;20051;-50
2021/09/03 04:26:45;;;;;;;16.63;2.10;;;;;;;15.98;100.00;100701.78;5093501;28;20562;-49
2021/09/03 04:29:48;;;;;;;7.05;1.70;;;;;;;16.01;100.00;100714.06;5093079;28;20082;-50
2021/09/03 04:32:51;;;;;;;5.78;1.33;;;;;;;16.06;100.00;100710.56;5093270;28;20192;-50
2021/09/03 04:35:54;;;;;;;2.53;1.58;;;;;;;16.20;100.00;100718.88;5092939;28;20047;-50
2021/09/03 04:38:57;;;;;;;3.33;1.45;;;;;;;16.24;100.00;100721.50;5093356;28;20610;-50
2021/09/03 04:42:00;;;;;;;5.32;1.92;;;;;;;16.26;100.00;100714.13;5092885;28;20187;-50
2021/09/03 04:45:04;;;;;;;3.67;0.57;;;;;;;16.25;100.00;100712.56;5092922;28;20054;-49
2021/09/03 04:48:07;;;;;;;9.25;1.48;;;;;;;16.28;100.00;100708.78;5093219;28;20124;-49
2021/09/03 04:51:10;;;;;;;7.30;1.85;;;;;;;16.14;100.00;100709.63;5093147;28;20444;-49
2021/09/03 04:54:13;;;;;;;3.92;1.45;;;;;;;15.88;100.00;100714.41;5093193;28;20085;-49
2021/09/03 04:57:16;;;;;;;4.25;0.80;;;;;;;15.80;100.00;100716.09;5092710;28;20051;-50
2021/09/03 05:00:19;;;;;;;3.67;1.73;;;;;;;15.72;100.00;100714.97;5092876;28;20451;-49
2021/09/03 05:03:21;;;;;;;3.25;0.82;;;;;;;15.98;100.00;100715.06;5092627;28;20039;-50
2021/09/03 05:06:24;;;;;;;3.42;1.38;;;;;;;16.06;100.00;100716.94;5092966;28;20039;-49
2021/09/03 05:09:28;;;;;;;11.40;1.30;;;;;;;16.05;100.00;100718.19;5092748;28;20105;-50
2021/09/03 05:12:30;;;;;;;1.95;1.02;;;;;;;16.08;100.00;100719.25;5092777;28;20039;-49
2021/09/03 05:15:38;;;;;;;4.35;1.50;;;;;;;16.00;100.00;100718.94;5092370;28;20042;-50
2021/09/03 05:18:41;;;;;;;3.90;1.45;;;;;;;16.08;100.00;100714.41;5092778;28;20046;-50
2021/09/03 05:21:44;;;;;;;3.00;1.13;;;;;;;16.13;100.00;100716.53;5092564;28;20061;-49
2021/09/03 05:24:47;;;;;;;0.65;0.55;;;;;;;16.11;100.00;100712.66;5092220;28;20133;-49
2021/09/03 05:27:50;;;;;;;10.82;1.85;;;;;;;16.00;100.00;100704.88;5091465;28;20062;-50
2021/09/03 05:30:55;;;;;;;14.25;2.33;;;;;;;16.05;100.00;100706.97;5091339;28;20055;-50
2021/09/03 05:33:58;;;;;;;10.25;1.95;;;;;;;15.81;100.00;100697.97;5090350;28;20415;-50
2021/09/03 05:37:02;;;;;;;4.25;1.50;;;;;;;16.09;100.00;100715.19;5091338;28;20051;-49
2021/09/03 05:40:07;;;;;;;2.30;1.13;;;;;;;16.05;100.00;100709.78;5090981;28;20043;-49
2021/09/03 05:43:10;;;;;;;1.85;1.15;;;;;;;16.10;100.00;100705.47;5089212;28;20046;-50
2021/09/03 05:46:13;;;;;;;4.95;1.70;;;;;;;16.03;100.00;100709.50;5091962;28;20070;-50
2021/09/03 05:49:16;;;;;;;6.20;2.05;;;;;;;16.10;100.00;100717.50;5092172;28;20083;-49
2021/09/03 05:52:19;;;;;;;4.35;1.27;;;;;;;16.09;100.00;100721.56;5092697;28;20511;-49
2021/09/03 05:55:22;;;;;;;10.13;1.95;;;;;;;16.23;100.00;100725.56;5092729;28;20487;-49
2021/09/03 05:58:25;;;;;;;2.50;1.73;;;;;;;16.17;100.00;100722.72;5092481;28;20515;-49
2021/09/03 06:01:28;;;;;;;6.70;2.92;;;;;;;16.35;100.00;100722.38;5092507;28;20078;-49
2021/09/03 06:04:30;;;;;;;4.32;1.42;;;;;;;15.93;100.00;100733.38;5092304;28;20051;-50
2021/09/03 06:07:33;;;;;;;4.15;1.80;;;;;;;15.85;100.00;100724.59;5092608;28;20047;-50
2021/09/03 06:10:36;;;;;;;10.70;1.95;;;;;;;15.79;100.00;100717.34;5095882;28;20085;-49
2021/09/03 06:13:39;;;;;;;10.00;2.10;;;;;;;15.69;100.00;100719.53;5095760;28;20554;-49
2021/09/03 06:16:42;;;;;;;5.00;1.38;;;;;;;15.71;100.00;100714.19;5096049;28;20702;-49
2021/09/03 06:19:44;;;;;;;5.57;2.55;;;;;;;15.80;100.00;100713.28;5095761;28;20093;-49
2021/09/03 06:22:47;;;;;;;11.90;3.03;;;;;;;15.81;100.00;100712.78;5095569;28;20500;-49
2021/09/03 06:25:50;;;;;;;6.32;2.22;;;;;;;16.08;100.00;100710.81;5095532;28;20561;-49
2021/09/03 06:28:53;;;;;;;6.68;2.03;;;;;;;16.00;100.00;100712.53;5095551;28;20055;-50
2021/09/03 06:31:56;;;;;;;3.67;1.65;;;;;;;15.89;100.00;100713.16;5094362;28;20043;-49
2021/09/03 06:35:01;;;;;;;4.25;1.50;;;;;;;16.00;100.00;100715.34;5091507;28;20039;-48
2021/09/03 06:38:04;;;;;;;6.13;1.77;;;;;;;16.15;100.00;100718.84;5094674;28;20097;-50
2021/09/03 06:41:06;;;;;;;5.53;2.10;;;;;;;16.11;100.00;100713.44;5094562;28;20039;-49
2021/09/03 06:44:09;;;;;;;11.52;2.15;;;;;;;15.83;100.00;100721.50;5095086;28;20051;-48
2021/09/03 06:47:14;;;;;;;7.63;3.05;;;;;;;15.74;100.00;100723.69;5095407;28;20089;-49
2021/09/03 06:50:18;;;;;;;8.02;2.33;;;;;;;15.76;100.00;100726.78;5095301;28;20416;-49
2021/09/03 06:53:21;;;;;;;7.90;2.53;;;;;;;15.69;100.00;100735.59;5095001;28;20102;-50
2021/09/03 06:56:24;;;;;;;3.70;2.08;;;;;;;15.81;100.00;100732.44;5095062;28;20096;-49
2021/09/03 06:59:27;;;;;;;9.68;2.60;;;;;;;15.84;100.00;100730.72;5094947;28;20106;-48
2021/09/03 07:02:30;;;;;;;6.43;2.20;;;;;;;15.87;100.00;100735.34;5094820;28;20548;-49
2021/09/03 07:05:33;;;;;;;12.50;3.08;;;;;;;15.87;100.00;100732.53;5094772;28;20078;-50
2021/09/03 07:08:36;;;;;;;6.95;1.98;;;;;;;15.93;100.00;100733.38;5094952;28;20047;-49
2021/09/03 07:11:39;;;;;;;5.85;2.40;;;;;;;15.88;100.00;100722.84;5094607;28;20177;-49
2021/09/03 07:14:43;;;;;;;6.80;1.95;;;;;;;15.98;100.00;100727.06;5094557;28;20034;-49
2021/09/03 07:17:47;;;;;;;7.32;2.20;;;;;;;15.95;100.00;100722.44;5094650;28;20046;-49
2021/09/03 07:20:49;;;;;;;6.47;2.15;;;;;;;15.93;100.00;100733.38;5094333;28;20039;-49
2021/09/03 07:23:52;;;;;;;10.43;2.92;;;;;;;15.85;100.00;100735.06;5094165;28;20086;-50
2021/09/03 07:26:56;;;;;;;11.18;3.33;;;;;;;15.94;100.00;100729.28;5094908;28;20067;-50
2021/09/03 07:29:59;;;;;;;6.95;2.08;;;;;;;16.12;100.00;100725.44;5094557;28;20097;-48
2021/09/03 07:33:02;;;;;;;11.13;2.78;;;;;;;16.10;100.00;100730.78;5094511;28;20097;-49
2021/09/03 07:36:05;;;;;;;2.85;1.65;;;;;;;15.76;100.00;100735.19;5094763;28;20128;-50
2021/09/03 07:39:08;;;;;;;4.60;1.70;;;;;;;16.04;100.00;100741.97;5094739;28;20096;-49
2021/09/03 07:42:10;;;;;;;6.10;1.95;;;;;;;16.08;100.00;100734.09;5094408;28;20123;-50
2021/09/03 07:45:13;;;;;;;8.20;3.30;;;;;;;15.99;100.00;100739.84;5094418;28;20571;-50
2021/09/03 07:48:17;;;;;;;6.43;2.03;;;;;;;16.09;100.00;100738.44;5094515;28;20051;-50
2021/09/03 07:51:20;;;;;;;7.32;3.05;;;;;;;16.08;100.00;100730.50;5094194;28;20109;-49
2021/09/03 07:54:23;;;;;;;11.68;2.72;;;;;;;16.05;100.00;100732.25;5094173;28;20059;-49
2021/09/03 07:57:25;;;;;;;9.93;2.35;;;;;;;15.99;100.00;100745.47;5094044;28;20084;-50
2021/09/03 08:00:28;;;;;;;3.85;1.58;;;;;;;16.03;100.00;100734.00;5093975;28;20043;-50
2021/09/03 08:03:31;;;;;;;9.40;3.22;;;;;;;16.07;100.00;100740.97;5094104;28;20085;-50
2021/09/03 08:06:34;;;;;;;4.45;1.52;;;;;;;16.19;100.00;100734.22;5093510;28;20076;-50
2021/09/03 08:09:37;;;;;;;7.47;2.22;;;;;;;16.17;100.00;100733.94;5093579;28;20786;-50
2021/09/03 08:12:41;;;;;;;12.07;3.08;;;;;;;16.18;100.00;100741.09;5093367;28;20561;-50
2021/09/03 08:15:43;;;;;;;8.07;1.90;;;;;;;16.21;100.00;100740.13;5094192;28;20085;-50
2021/09/03 08:18:46;;;;;;;6.28;2.10;;;;;;;16.23;100.00;100743.22;5093933;28;20450;-50
2021/09/03 08:21:50;;;;;;;4.43;2.72;;;;;;;16.26;100.00;100739.44;5093791;28;20039;-49
2021/09/03 08:24:53;;;;;;;4.28;1.77;;;;;;;16.29;100.00;100730.00;5093555;28;20126;-50
2021/09/03 08:27:56;;;;;;;5.32;1.75;;;;;;;16.42;100.00;100729.63;5093559;28;20096;-49
2021/09/03 08:30:59;;;;;;;2.92;1.98;;;;;;;16.58;100.00;100729.84;5092924;28;20047;-50
2021/09/03 08:34:02;;;;;;;4.82;1.75;;;;;;;16.53;100.00;100744.59;5093817;28;20050;-50
2021/09/03 08:37:05;;;;;;;5.22;2.30;;;;;;;16.64;100.00;100741.91;5093601;28;20050;-50
2021/09/03 08:40:10;;;;;;;6.50;2.28;;;;;;;16.65;100.00;100734.25;5093415;28;20042;-50
2021/09/03 08:43:17;;;;;;;4.78;2.20;;;;;;;16.66;100.00;100744.22;5093345;28;20066;-50
2021/09/03 08:46:22;;;;;;;7.45;1.30;;;;;;;16.74;100.00;100748.13;5093283;28;20400;-49
2021/09/03 08:49:25;;;;;;;4.15;2.05;;;;;;;16.78;100.00;100742.31;5093084;28;20114;-49
2021/09/03 08:52:29;;;;;;;9.70;2.30;;;;;;;16.73;100.00;100735.34;5093390;28;20039;-50
2021/09/03 08:55:32;;;;;;;6.32;1.38;;;;;;;16.77;100.00;100737.94;5093301;28;20039;-49
2021/09/03 08:58:35;;;;;;;5.13;1.88;;;;;;;16.87;100.00;100739.31;5092775;28;20055;-49
2021/09/03 09:01:38;;;;;;;9.38;2.85;;;;;;;16.81;100.00;100730.03;5092715;28;20040;-49
2021/09/03 09:04:45;;;;;;;10.85;2.92;;;;;;;16.85;100.00;100733.41;5093006;28;20047;-50
2021/09/03 09:08:06;;;;;;;3.08;1.60;;;;;;;16.88;100.00;100736.00;5093213;28;20089;-50
2021/09/03 09:11:13;;;;;;;;;;;;;;;16.78;100.00;100734.63;5093753;28;20098;-49
2021/09/03 09:14:17;;;;;;;7.78;1.95;;;;;;;16.79;100.00;100733.34;5093101;28;20007;-52
2021/09/03 09:17:36;;;;;;;5.53;2.03;;;;;;;17.00;100.00;100736.88;5093078;28;20101;-50
2021/09/03 09:20:40;;;;;;;4.90;2.25;;;;;;;17.01;100.00;100729.97;5093075;28;20047;-49
2021/09/03 09:23:57;;;;;;;7.88;1.60;;;;;;;17.00;100.00;100732.00;5093192;28;20173;-50
2021/09/03 09:27:00;;;;;;;10.52;2.47;;;;;;;16.98;100.00;100733.78;5092997;28;20089;-49
2021/09/03 09:30:18;;;;;;;3.80;1.38;;;;;;;16.97;100.00;100726.63;5093007;28;20047;-49
2021/09/03 09:33:22;;;;;;;3.33;2.17;;;;;;;17.07;100.00;100736.41;5092563;28;20074;-49
2021/09/03 09:36:35;;;;;;;4.30;1.45;;;;;;;17.17;100.00;100732.16;5093061;28;20043;-50
2021/09/03 09:39:57;;;;;;;6.00;1.98;;;;;;;17.38;100.00;100734.38;5092816;28;20174;-51
2021/09/03 09:43:00;;;;;;;5.07;1.42;;;;;;;17.55;100.00;100731.69;5094717;28;20523;-50
2021/09/03 09:46:13;;;;;;;5.72;1.85;;;;;;;17.74;100.00;100726.41;5096486;28;20047;-51
2021/09/03 09:49:16;;;;;;;11.77;1.95;;;;;;;17.93;100.00;100719.84;5096313;28;20055;-50
2021/09/03 09:52:33;;;;;;;4.97;1.52;;;;;;;18.08;100.00;100723.25;5096519;28;20499;-50
2021/09/03 09:55:40;;;;;;;2.05;1.42;;;;;;;18.16;100.00;100713.03;5079936;28;20050;-50
2021/09/03 09:58:44;;;;;;;7.78;1.45;;;;;;;18.14;100.00;100715.59;5061420;28;21138;-50
2021/09/03 10:01:51;;;;;;;4.28;1.33;;;;;;;18.05;100.00;100707.38;5060750;28;20423;-50
2021/09/03 10:04:57;;;;;;;6.00;1.67;;;;;;;17.95;100.00;100706.03;5057999;28;20176;-50
2021/09/03 10:08:01;;;;;;;5.40;1.42;;;;;;;17.95;100.00;100708.09;5039910;28;20048;-50
2021/09/03 10:11:04;;;;;;;5.22;2.10;;;;;;;17.94;100.00;100701.66;5065727;28;20078;-50
2021/09/03 10:14:09;;;;;;;3.95;1.60;;;;;;;17.93;100.00;100707.81;5095578;28;20046;-50
2021/09/03 10:17:13;;;;;;;4.70;1.70;;;;;;;17.92;100.00;100704.22;5096081;28;20075;-50
2021/09/03 10:20:17;;;;;;;4.70;1.17;;;;;;;17.92;100.00;100707.03;5095705;28;20098;-50
2021/09/03 10:23:46;;;;;;;1.65;0.77;;;;;;;18.09;100.00;100693.78;5095260;28;20043;-50
2021/09/03 10:26:53;;;;;;;6.50;1.30;;;;;;;17.88;100.00;100697.28;5096123;28;20074;-50
2021/09/03 10:30:17;;;;;;;2.72;0.88;;;;;;;18.00;100.00;100693.22;5095848;28;20459;-50
2021/09/03 10:33:32;;;;;;;5.35;1.38;;;;;;;18.33;100.00;100689.75;5095644;28;20050;-50
2021/09/03 10:36:55;;;;;;;1.90;0.70;;;;;;;18.69;100.00;100700.13;5095200;28;20109;-50
2021/09/03 10:40:05;;;;;;;11.10;1.73;;;;;;;18.56;100.00;100682.91;5095514;28;20043;-50
2021/09/03 10:43:08;;;;;;;4.47;1.40;;;;;;;18.50;100.00;100685.72;5095438;28;20132;-50
2021/09/03 10:46:13;;;;;;;2.85;0.80;;;;;;;18.56;100.00;100675.22;5095155;28;20047;-50
2021/09/03 10:49:26;;;;;;;3.72;1.20;;;;;;;18.66;100.00;100678.56;5095197;28;20042;-51
2021/09/03 10:52:30;;;;;;;2.33;1.35;;;;;;;18.65;100.00;100685.47;5095116;28;20093;-50
2021/09/03 10:55:48;;;;;;;5.70;1.67;;;;;;;18.73;100.00;100675.25;5094449;28;20136;-49
2021/09/03 10:59:03;;;;;;;2.40;0.82;;;;;;;18.70;100.00;100670.59;5095002;28;20055;-50
2021/09/03 11:02:11;;;;;;;6.03;1.02;;;;;;;18.75;100.00;100678.31;5094209;28;20441;-50
2021/09/03 11:05:15;;;;;;;4.70;0.70;;;;;;;18.83;100.00;100680.13;5094330;28;20047;-50
2021/09/03 11:08:40;;;;;;;3.28;0.90;;;;;;;18.90;100.00;100670.38;5095065;28;20047;-50
2021/09/03 11:11:45;;;;;;;1.88;1.13;;;;;;;18.89;100.00;100658.28;5094054;28;20047;-49
2021/09/03 11:14:54;;;;;;;2.33;1.40;;;;;;;19.08;100.00;100660.59;5093725;28;20047;-50
2021/09/03 11:17:57;;;;;;;10.77;1.30;;;;;;;19.15;100.00;100649.53;5094920;28;20101;-50
2021/09/03 11:21:00;;;;;;;6.75;1.58;;;;;;;19.33;100.00;100649.00;5094790;28;20093;-50
2021/09/03 11:24:04;;;;;;;3.03;0.98;;;;;;;19.13;100.00;100651.34;5094386;28;20069;-50
2021/09/03 11:27:11;;;;;;;1.75;0.82;;;;;;;19.59;100.00;100649.47;5094495;28;20097;-50
2021/09/03 11:30:14;;;;;;;6.28;1.15;;;;;;;19.63;100.00;100649.97;5094419;28;20097;-50
2021/09/03 11:33:17;;;;;;;6.80;1.30;;;;;;;19.50;100.00;100638.47;5094177;28;20047;-49
2021/09/03 11:36:21;;;;;;;2.70;0.88;;;;;;;19.31;100.00;100645.94;5094219;28;20094;-50
2021/09/03 11:39:25;;;;;;;8.32;1.27;;;;;;;19.46;100.00;100640.00;5094260;28;20050;-50
2021/09/03 11:42:31;;;;;;;7.20;0.98;;;;;;;19.57;100.00;100640.75;5093835;28;20119;-50
2021/09/03 11:45:38;;;;;;;6.05;1.33;;;;;;;19.73;100.00;100650.44;5073763;28;20132;-50
2021/09/03 11:48:44;;;;;;;2.83;0.85;;;;;;;19.90;100.00;100639.06;5073923;28;20452;-50
2021/09/03 11:51:48;;;;;;;5.13;1.55;;;;;;;19.89;100.00;100631.88;5073051;28;20047;-50
2021/09/03 11:54:53;;;;;;;6.20;1.10;;;;;;;19.98;100.00;100623.09;5074010;28;20067;-50
2021/09/03 11:58:04;;;;;;;4.95;1.38;;;;;;;20.06;100.00;100624.06;5072597;28;20044;-51
2021/09/03 12:01:08;;;;;;;2.47;0.70;;;;;;;19.89;100.00;100626.22;5073662;28;20504;-50
2021/09/03 12:04:11;;;;;;;2.65;0.88;;;;;;;19.81;100.00;100620.34;5073818;28;20127;-51
2021/09/03 12:07:17;;;;;;;3.63;0.85;;;;;;;19.82;100.00;100621.09;5071594;28;20535;-50
2021/09/03 12:10:31;;;;;;;3.97;0.80;;;;;;;19.96;100.00;100614.38;5071549;28;20047;-50
2021/09/03 12:13:35;;;;;;;5.95;0.90;;;;;;;20.26;100.00;100613.19;5072146;28;20734;-50
2021/09/03 12:16:41;;;;;;;5.85;0.88;;;;;;;20.05;100.00;100619.72;5072007;28;20046;-50
2021/09/03 12:19:44;;;;;;;3.63;1.17;;;;;;;19.88;100.00;100619.03;5073673;28;20077;-51
2021/09/03 12:22:53;;;;;;;4.38;1.05;;;;;;;19.81;100.00;100620.34;5073247;28;20097;-50
2021/09/03 12:26:18;;;;;;;2.83;0.85;;;;;;;19.80;100.00;100635.00;5073472;28;20089;-50
2021/09/03 12:29:28;;;;;;;3.22;0.70;;;;;;;19.72;100.00;100631.97;5072484;28;20106;-50
2021/09/03 12:32:30;;;;;;;1.65;0.38;;;;;;;19.54;100.00;100619.19;5073093;28;20512;-50
2021/09/03 12:35:35;;;;;;;3.55;0.38;;;;;;;19.56;100.00;100613.78;5073078;28;20174;-49
2021/09/03 12:38:43;;;;;;;2.08;0.77;;;;;;;19.53;100.00;100623.28;5073412;28;20097;-50
2021/09/03 12:41:47;;;;;;;5.75;0.90;;;;;;;19.59;100.00;100621.22;5073455;28;20090;-50
2021/09/03 12:44:59;;;;;;;3.20;1.05;;;;;;;19.49;100.00;100617.13;5089646;28;20051;-50
2021/09/03 12:48:03;;;;;;;2.60;0.82;;;;;;;19.48;100.00;100615.59;5093004;28;20098;-51
2021/09/03 12:51:07;;;;;;;5.38;0.95;;;;;;;19.68;100.00;100612.44;5092260;28;20039;-50
2021/09/03 12:54:13;;;;;;;3.92;1.10;;;;;;;19.71;100.00;100604.22;5093043;28;20529;-50
2021/09/03 12:57:18;;;;;;;4.45;1.23;;;;;;;19.71;100.00;100604.22;5092793;28;20051;-51
2021/09/03 13:00:28;;;;;;;2.25;1.05;;;;;;;20.00;100.00;100586.56;5092234;28;20047;-52
2021/09/03 13:03:31;;;;;;;3.88;1.35;;;;;;;20.06;100.00;100585.25;5093092;28;20400;-49
2021/09/03 13:06:34;;;;;;;3.13;1.00;;;;;;;20.17;100.00;100581.59;5092799;28;20043;-51
2021/09/03 13:09:37;;;;;;;2.15;0.63;;;;;;;19.86;100.00;100585.63;5092594;28;20051;-53
2021/09/03 13:12:39;;;;;;;6.80;1.13;;;;;;;19.68;100.00;100578.50;5092532;28;20035;-55
2021/09/03 13:15:42;;;;;;;4.78;1.45;;;;;;;19.89;100.00;100586.63;5092163;28;20047;-56
2021/09/03 13:18:45;;;;;;;9.73;2.10;;;;;;;19.81;100.00;100580.00;5095831;28;20066;-52
2021/09/03 13:21:48;;;;;;;6.07;1.30;;;;;;;19.91;100.00;100567.09;5096944;28;20046;-51
2021/09/03 13:24:51;;;;;;;2.80;0.90;;;;;;;19.98;100.00;100561.66;5096860;28;20063;-50
2021/09/03 13:27:54;;;;;;;4.40;1.70;;;;;;;20.15;100.00;100553.06;5096907;28;20051;-51
2021/09/03 13:30:56;;;;;;;5.22;1.48;;;;;;;20.39;100.00;100556.75;5096859;28;20039;-51
2021/09/03 13:34:01;;;;;;;4.75;1.25;;;;;;;20.28;100.00;100550.41;5097036;28;20039;-50
2021/09/03 13:37:04;;;;;;;8.98;1.77;;;;;;;20.10;100.00;100546.16;5097153;28;20089;-50
2021/09/03 13:40:07;;;;;;;3.05;0.93;;;;;;;19.91;100.00;100544.47;5097095;28;20376;-50
2021/09/03 13:43:11;;;;;;;2.80;0.95;;;;;;;19.86;100.00;100548.13;5096715;28;20054;-51
2021/09/03 13:46:14;;;;;;;4.55;1.80;;;;;;;19.88;100.00;100539.88;5097315;28;20079;-50
2021/09/03 13:49:17;;;;;;;5.68;1.20;;;;;;;19.91;100.00;100538.81;5096899;28;20090;-54
2021/09/03 13:52:20;;;;;;;6.63;1.80;;;;;;;19.94;100.00;100534.97;5096583;28;20043;-54
2021/09/03 13:55:23;;;;;;;3.97;1.50;;;;;;;20.05;100.00;100532.06;5096898;28;20123;-54
2021/09/03 13:58:26;;;;;;;3.35;1.65;;;;;;;20.34;100.00;100531.34;5096560;28;20139;-55
2021/09/03 14:01:30;;;;;;;4.15;1.88;;;;;;;20.40;100.00;100520.72;5095461;28;20055;-54
2021/09/03 14:04:34;;;;;;;10.35;1.77;;;;;;;20.43;100.00;100519.69;5096576;28;20043;-56
2021/09/03 14:07:37;;;;;;;9.50;2.50;;;;;;;20.36;100.00;100517.44;5095476;28;20144;-53